createdAt,value
2022-10-05T00:07:32.158Z,20.39
2022-10-05T00:17:35.662Z,20.37
2022-10-05T00:27:36.926Z,20.39
2022-10-05T00:37:38.167Z,20.40
2022-10-05T00:47:39.416Z,20.37
2022-10-05T00:57:40.679Z,20.38
2022-10-05T01:07:41.927Z,20.38
2022-10-05T01:17:43.146Z,20.37
2022-10-05T01:27:44.384Z,20.39
2022-10-05T01:37:45.698Z,20.35
2022-10-05T01:47:46.945Z,20.35
2022-10-05T01:57:48.180Z,20.32
2022-10-05T02:07:49.421Z,20.34
2022-10-05T02:17:50.680Z,20.34
2022-10-05T02:27:51.925Z,20.36
2022-10-05T02:37:53.266Z,20.31
2022-10-05T02:47:54.484Z,20.31
2022-10-05T02:57:55.756Z,20.34
2022-10-05T03:07:56.991Z,20.31
2022-10-05T03:17:58.226Z,20.31
2022-10-05T03:27:59.494Z,20.29
2022-10-05T03:38:00.779Z,20.28
2022-10-05T03:48:02.023Z,20.27
2022-10-05T03:58:03.279Z,20.29
2022-10-05T04:08:04.552Z,20.26
2022-10-05T04:18:05.802Z,20.24
2022-10-05T04:28:07.110Z,20.28
2022-10-05T04:38:08.380Z,20.29
2022-10-05T04:48:09.626Z,20.27
2022-10-05T04:58:10.931Z,20.29
2022-10-05T05:08:12.203Z,20.27
2022-10-05T05:18:13.470Z,20.28
2022-10-05T05:28:14.789Z,20.28
2022-10-05T05:38:16.072Z,20.27
2022-10-05T05:48:17.328Z,20.27
2022-10-05T05:58:18.577Z,20.28
2022-10-05T06:08:19.818Z,20.27
2022-10-05T06:18:21.070Z,20.27
2022-10-05T06:28:22.503Z,20.26
2022-10-05T06:38:23.973Z,20.28
2022-10-05T06:48:26.759Z,20.25
2022-10-05T06:58:28.079Z,20.28
2022-10-05T07:08:29.378Z,20.26
2022-10-05T07:18:30.740Z,20.29
2022-10-05T07:28:32.116Z,20.27
2022-10-05T07:38:33.530Z,20.30
2022-10-05T07:48:38.351Z,20.31
2022-10-05T07:58:46.270Z,20.34
2022-10-05T08:08:54.319Z,20.36
2022-10-05T08:50:08.337Z,20.45
2022-10-05T09:00:10.861Z,20.46
2022-10-05T09:10:12.262Z,20.50
2022-10-05T09:30:42.547Z,20.49
2022-10-05T09:40:44.478Z,20.53
2022-10-05T09:50:56.553Z,20.54
2022-10-05T10:01:09.047Z,20.56
2022-10-05T10:11:19.340Z,20.54
2022-10-05T10:32:09.730Z,20.60
2022-10-05T10:42:11.008Z,20.61
2022-10-05T10:52:15.451Z,20.62
2022-10-05T11:02:23.386Z,20.67
2022-10-05T11:12:37.497Z,20.68
2022-10-05T11:22:39.407Z,20.69
2022-10-05T11:32:47.285Z,20.67
2022-10-05T11:53:18.321Z,20.67
2022-10-05T12:03:19.760Z,20.68
2022-10-05T12:13:21.176Z,20.67
2022-10-05T12:23:31.963Z,20.70
2022-10-05T12:33:49.888Z,20.70
2022-10-05T12:43:52.268Z,20.70
2022-10-05T12:53:54.667Z,20.70
2022-10-05T13:04:02.344Z,20.73
2022-10-05T13:14:11.468Z,20.75
2022-10-05T13:24:19.298Z,20.74
2022-10-05T13:34:28.653Z,20.74
2022-10-05T13:44:38.011Z,20.80
2022-10-05T13:54:44.667Z,20.83
2022-10-05T14:04:52.322Z,20.85
2022-10-05T14:15:02.306Z,20.84
2022-10-05T14:25:10.329Z,20.86
2022-10-05T14:35:18.769Z,20.88
2022-10-05T14:45:26.363Z,20.86
2022-10-05T14:55:34.328Z,20.84
2022-10-05T15:05:42.325Z,20.88
2022-10-05T15:26:12.224Z,20.83
2022-10-05T15:36:13.901Z,20.81
2022-10-05T15:46:15.720Z,20.80
2022-10-05T16:06:45.619Z,20.81
2022-10-05T16:16:46.961Z,20.80
2022-10-05T16:26:48.552Z,20.78
2022-10-05T16:36:49.884Z,20.78
2022-10-05T16:46:51.292Z,20.77
2022-10-05T16:56:52.634Z,20.78
2022-10-05T17:06:54.001Z,20.78
2022-10-05T17:16:55.366Z,20.77
2022-10-05T17:26:56.684Z,20.76
2022-10-05T17:36:57.924Z,20.79
2022-10-05T17:46:59.287Z,20.78
2022-10-05T17:57:00.641Z,20.77
2022-10-05T18:07:02.018Z,20.76
2022-10-05T18:17:03.326Z,20.79
2022-10-05T18:27:04.668Z,20.76
2022-10-05T18:37:05.879Z,20.78
2022-10-05T18:47:07.258Z,20.77
2022-10-05T18:57:08.500Z,20.74
2022-10-05T19:07:09.736Z,20.75
2022-10-05T19:17:11.125Z,20.76
2022-10-05T19:27:12.465Z,20.74
2022-10-05T19:37:13.808Z,20.74
2022-10-05T19:47:15.128Z,20.73
2022-10-05T19:57:16.517Z,20.74
2022-10-05T20:07:17.790Z,20.72
2022-10-05T20:17:19.005Z,20.71
2022-10-05T20:27:20.323Z,20.70
2022-10-05T20:37:21.686Z,20.70
2022-10-05T20:47:22.943Z,20.69
2022-10-05T20:57:24.275Z,20.68
2022-10-05T21:07:25.588Z,20.69
2022-10-05T21:17:26.925Z,20.68
2022-10-05T21:27:28.275Z,20.69
2022-10-05T21:37:29.580Z,20.67
2022-10-05T21:47:30.791Z,20.66
2022-10-05T21:57:32.226Z,20.62
2022-10-05T22:07:33.524Z,20.63
2022-10-05T22:17:34.765Z,20.62
2022-10-05T22:27:36.028Z,20.60
2022-10-05T22:37:37.270Z,20.61
2022-10-05T22:47:38.520Z,20.57
2022-10-05T22:57:40.381Z,20.55
2022-10-05T23:07:41.645Z,20.52
2022-10-05T23:17:42.965Z,20.51
2022-10-05T23:27:44.191Z,20.49
2022-10-05T23:37:45.429Z,20.49
2022-10-05T23:47:46.648Z,20.49
2022-10-05T23:57:47.883Z,20.49
